Time;durP1;ratioP1;P1;durP2;ratioP2;P2;SDS_P1;SDS_P2;PMS_P1;PMS_P2;Temp;Humidity;BMP_temperature;BMP_pressure;BME280_temperature;BME280_humidity;BME280_pressure;Samples;Min_cycle;Max_cycle;Signal;HPM_P1;HPM_P2
2021/10/24 00:02:18;;;;;;;;;27.80;23.00;;;;;11.56;48.66;100091.91;7586068;23;98209;-65
2021/10/24 00:05:21;;;;;;;;;26.00;23.40;;;;;11.49;49.12;100096.41;7586176;23;96494;-65
2021/10/24 00:08:26;;;;;;;;;29.40;25.00;;;;;11.44;48.79;100096.16;7558813;23;97074;-65
2021/10/24 00:11:29;;;;;;;;;27.00;24.00;;;;;11.51;48.94;100111.41;7586816;23;96908;-64
2021/10/24 00:14:32;;;;;;;;;24.60;22.60;;;;;11.50;48.92;100115.13;7586878;23;96870;-64
2021/10/24 00:17:35;;;;;;;;;26.60;23.60;;;;;11.48;48.71;100119.91;7560035;23;96541;-65
2021/10/24 00:20:39;;;;;;;;;26.60;23.20;;;;;11.52;48.95;100115.78;7586185;23;98064;-64
2021/10/24 00:23:46;;;;;;;;;25.00;22.00;;;;;11.50;48.95;100119.69;7560586;23;97405;-65
2021/10/24 00:26:49;;;;;;;;;25.60;21.60;;;;;11.45;49.09;100108.63;7586480;23;97277;-64
2021/10/24 00:29:52;;;;;;;;;23.80;22.00;;;;;11.42;49.22;100123.38;7587246;23;97417;-65
2021/10/24 00:32:56;;;;;;;;;27.20;22.00;;;;;11.39;49.10;100122.94;7535092;23;97840;-64
2021/10/24 00:36:00;;;;;;;;;25.00;22.00;;;;;11.33;49.22;100113.78;7551088;23;96928;-64
2021/10/24 00:39:05;;;;;;;;;23.67;21.67;;;;;11.39;49.10;100117.53;7586672;23;97065;-64
2021/10/24 00:42:09;;;;;;;;;22.20;21.00;;;;;11.41;49.24;100110.91;7586259;23;97429;-65
2021/10/24 00:45:13;;;;;;;;;24.60;22.00;;;;;11.47;49.26;100114.69;7534027;23;98367;-65
2021/10/24 00:48:16;;;;;;;;;24.60;21.60;;;;;11.50;48.99;100117.81;7587029;23;96523;-64
2021/10/24 00:51:21;;;;;;;;;25.25;21.75;;;;;11.51;49.27;100111.41;7586322;23;96418;-64
2021/10/24 00:54:27;;;;;;;;;25.00;23.25;;;;;11.59;49.07;100118.50;7556348;23;96915;-64
2021/10/24 00:57:31;;;;;;;;;25.60;22.80;;;;;11.64;49.28;100119.56;7557581;23;97046;-64
2021/10/24 01:00:34;;;;;;;;;24.50;22.00;;;;;11.65;49.17;100106.91;7586828;23;97385;-65
2021/10/24 01:03:38;;;;;;;;;25.00;22.40;;;;;11.69;49.11;100103.59;7559309;23;96656;-64
2021/10/24 01:06:43;;;;;;;;;27.67;23.00;;;;;11.76;48.97;100106.38;7535314;23;97036;-65
2021/10/24 01:09:48;;;;;;;;;22.60;21.00;;;;;11.80;49.00;100109.50;7549065;23;97398;-64
2021/10/24 01:12:54;;;;;;;;;24.00;23.00;;;;;11.79;48.87;100114.06;7559772;23;97107;-65
2021/10/24 01:16:09;;;;;;;;;27.00;25.00;;;;;11.67;49.03;100103.00;7551127;23;96429;-65
2021/10/24 01:19:15;;;;;;;;;25.60;22.00;;;;;11.81;49.02;100119.28;7560100;23;97093;-64
2021/10/24 01:22:19;;;;;;;;;24.00;22.00;;;;;11.87;49.15;100127.44;7560288;23;97795;-65
2021/10/24 01:25:23;;;;;;;;;24.40;22.40;;;;;11.92;48.90;100118.72;7556164;23;97450;-64
2021/10/24 01:28:28;;;;;;;;;26.00;24.00;;;;;11.91;49.11;100128.72;7556627;23;96645;-65
2021/10/24 01:31:32;;;;;;;;;25.00;23.00;;;;;11.95;49.00;100121.03;7560050;23;96351;-64
2021/10/24 01:34:47;;;;;;;;;23.75;20.25;;;;;11.94;48.94;100111.25;7584830;23;97598;-64
2021/10/24 01:37:55;;;;;;;;;23.40;21.20;;;;;11.96;49.08;100123.53;7559569;23;97363;-65
2021/10/24 01:40:59;;;;;;;;;23.25;21.25;;;;;11.86;48.90;100120.38;7586434;23;96654;-64
2021/10/24 01:44:03;;;;;;;;;24.33;21.33;;;;;12.01;48.88;100133.75;7586313;23;96386;-65
2021/10/24 01:47:08;;;;;;;;;26.00;21.00;;;;;12.07;48.63;100130.25;7534998;23;96717;-65
2021/10/24 01:50:13;;;;;;;;;24.60;21.60;;;;;11.99;48.66;100119.59;7560098;23;98026;-65
2021/10/24 01:53:20;;;;;;;;;26.40;23.00;;;;;12.13;48.52;100132.97;7528711;23;97829;-65
2021/10/24 01:56:24;;;;;;;;;26.00;23.00;;;;;12.18;48.50;100142.34;7554736;23;96990;-65
2021/10/24 01:59:27;;;;;;;;;24.00;21.00;;;;;12.25;48.38;100138.63;7586285;23;96515;-65
2021/10/24 02:02:49;;;;;;;;;25.00;23.00;;;;;12.30;48.47;100138.03;7574851;23;97494;-65
2021/10/24 02:06:08;;;;;;;;;25.60;21.00;;;;;12.34;48.27;100144.69;7586199;23;97446;-65
2021/10/24 02:09:14;;;;;;;;;21.50;19.00;;;;;12.38;48.10;100145.94;7553410;23;97384;-64
2021/10/24 02:12:17;;;;;;;;;27.00;23.00;;;;;12.37;48.09;100131.59;7555047;23;97379;-64
2021/10/24 02:15:21;;;;;;;;;22.20;19.20;;;;;12.38;48.22;100141.38;7535626;23;97400;-65
2021/10/24 02:18:24;;;;;;;;;24.00;20.40;;;;;12.39;47.97;100144.91;7560236;23;97368;-65
2021/10/24 02:21:30;;;;;;;;;21.00;20.00;;;;;12.35;48.19;100146.38;7584120;23;97527;-64
2021/10/24 02:24:38;;;;;;;;;25.75;22.00;;;;;12.29;48.38;100137.19;7533469;23;97122;-65
2021/10/24 02:27:41;;;;;;;;;23.00;21.00;;;;;12.20;48.26;100143.81;7559273;23;97452;-65
2021/10/24 02:30:45;;;;;;;;;22.20;20.20;;;;;12.15;48.55;100141.72;7547677;23;96855;-65
2021/10/24 02:34:07;;;;;;;;;25.60;22.60;;;;;12.09;48.57;100147.09;7586313;23;96749;-65
2021/10/24 02:37:30;;;;;;;;;27.00;23.60;;;;;12.03;48.95;100142.47;7585350;23;96495;-64
2021/10/24 02:40:42;;;;;;;;;26.00;24.00;;;;;11.98;48.68;100148.47;7558654;23;96566;-64
2021/10/24 02:43:47;;;;;;;;;27.40;24.00;;;;;11.78;48.94;100136.72;7548924;23;97604;-64
2021/10/24 02:46:51;;;;;;;;;25.00;23.25;;;;;11.81;49.12;100149.00;7559321;23;97886;-65
2021/10/24 02:49:55;;;;;;;;;25.40;23.40;;;;;11.78;49.28;100157.53;7558974;23;96435;-65
2021/10/24 02:52:58;;;;;;;;;23.60;21.60;;;;;11.75;49.30;100161.44;7556727;23;97243;-65
2021/10/24 02:56:04;;;;;;;;;27.00;24.40;;;;;11.66;49.60;100154.50;7542706;23;97498;-64
2021/10/24 02:59:07;;;;;;;;;25.25;23.25;;;;;11.66;49.53;100151.81;7585968;23;97777;-64
2021/10/24 03:02:11;;;;;;;;;24.80;21.80;;;;;11.64;49.63;100160.09;7559053;23;97131;-65
2021/10/24 03:05:14;;;;;;;;;25.40;23.40;;;;;11.58;49.53;100152.78;7559215;23;97536;-65
2021/10/24 03:08:20;;;;;;;;;23.40;21.40;;;;;11.64;49.69;100153.84;7555048;23;96550;-64
2021/10/24 03:11:25;;;;;;;;;24.60;24.00;;;;;11.63;49.69;100173.81;7583913;23;97010;-65
2021/10/24 03:14:29;;;;;;;;;24.50;24.00;;;;;11.63;49.74;100173.81;7557973;23;96686;-65
2021/10/24 03:17:33;;;;;;;;;26.80;24.00;;;;;11.57;49.81;100167.34;7558844;23;97073;-65
2021/10/24 03:20:36;;;;;;;;;24.60;21.20;;;;;11.52;50.01;100167.09;7584819;23;97135;-65
2021/10/24 03:23:40;;;;;;;;;25.00;23.00;;;;;11.44;50.35;100169.91;7558416;23;97765;-64
2021/10/24 03:26:45;;;;;;;;;24.60;22.00;;;;;11.40;50.40;100174.03;7547783;23;96669;-65
2021/10/24 03:29:50;;;;;;;;;24.00;20.50;;;;;11.26;50.84;100185.75;7535880;23;98287;-65
2021/10/24 03:32:54;;;;;;;;;21.40;20.40;;;;;11.19;50.86;100191.09;7550146;23;96869;-65
2021/10/24 03:35:58;;;;;;;;;25.25;24.00;;;;;11.23;50.83;100178.91;7581604;23;96587;-65
2021/10/24 03:39:03;;;;;;;;;22.00;21.00;;;;;11.19;51.00;100174.09;7567782;23;96425;-65
2021/10/24 03:42:07;;;;;;;;;23.00;21.00;;;;;11.19;50.87;100185.69;7535532;23;97688;-65
2021/10/24 03:45:11;;;;;;;;;23.20;20.80;;;;;11.22;50.92;100181.78;7560833;23;97377;-64
2021/10/24 03:48:16;;;;;;;;;24.40;22.00;;;;;11.21;50.95;100183.66;7559958;23;97372;-65
2021/10/24 03:51:24;;;;;;;;;20.40;19.40;;;;;11.23;50.83;100189.72;7560395;23;97776;-65
2021/10/24 03:54:27;;;;;;;;;23.50;21.75;;;;;11.24;50.98;100188.66;7559369;23;96659;-64
2021/10/24 03:57:32;;;;;;;;;23.40;21.00;;;;;11.22;51.13;100187.19;7584422;23;97235;-65
2021/10/24 04:00:35;;;;;;;;;21.00;19.00;;;;;11.20;50.98;100195.47;7560662;23;96836;-65
2021/10/24 04:03:44;;;;;;;;;24.00;21.00;;;;;11.20;50.94;100195.47;7560194;23;98129;-64
2021/10/24 04:06:48;;;;;;;;;24.60;21.00;;;;;11.21;50.74;100197.16;7560199;23;96658;-65
2021/10/24 04:09:51;;;;;;;;;22.60;19.60;;;;;11.24;50.65;100191.34;7560306;23;97232;-65
2021/10/24 04:12:57;;;;;;;;;22.00;21.00;;;;;11.25;50.88;100195.72;7535400;23;97770;-64
2021/10/24 04:16:01;;;;;;;;;20.00;18.00;;;;;11.22;50.67;100190.72;7560054;23;96585;-65
2021/10/24 04:19:33;;;;;;;;;19.60;18.00;;;;;11.22;50.60;100193.44;7505197;23;96708;-64
2021/10/24 04:22:39;;;;;;;;;22.00;21.00;;;;;11.25;50.61;100194.88;7559667;23;98021;-64
2021/10/24 04:25:42;;;;;;;;;21.00;19.00;;;;;11.21;50.50;100205.25;7586164;23;96931;-65
2021/10/24 04:28:46;;;;;;;;;21.00;19.00;;;;;11.20;50.61;100206.28;7547629;23;97487;-65
2021/10/24 04:31:52;;;;;;;;;22.00;18.00;;;;;11.11;50.89;100217.41;7584262;23;96457;-65
2021/10/24 04:34:56;;;;;;;;;22.50;20.00;;;;;11.10;50.72;100224.66;7559389;23;96450;-65
2021/10/24 04:38:00;;;;;;;;;23.00;18.00;;;;;11.07;50.71;100233.16;7560256;23;97102;-65
2021/10/24 04:41:04;;;;;;;;;21.50;20.50;;;;;11.08;50.75;100234.81;7559570;23;96566;-64
2021/10/24 04:44:09;;;;;;;;;21.75;19.75;;;;;11.06;50.70;100231.47;7559461;23;97345;-65
2021/10/24 04:47:13;;;;;;;;;20.40;18.00;;;;;11.08;51.06;100232.13;7559300;23;97061;-65
2021/10/24 04:50:16;;;;;;;;;19.25;17.75;;;;;10.96;50.84;100209.34;7554165;23;96398;-63
2021/10/24 04:53:20;;;;;;;;;21.00;19.40;;;;;11.14;50.76;100246.72;7558366;23;96567;-64
2021/10/24 04:56:27;;;;;;;;;18.20;18.00;;;;;11.13;50.86;100262.06;7557402;23;96915;-64
2021/10/24 04:59:32;;;;;;;;;24.00;20.00;;;;;11.16;50.85;100253.59;7583463;23;96683;-64
2021/10/24 05:02:36;;;;;;;;;20.00;18.00;;;;;11.03;50.73;100242.66;7584876;23;97024;-65
2021/10/24 05:05:40;;;;;;;;;18.40;16.60;;;;;11.06;50.94;100247.66;7556404;23;98310;-64
2021/10/24 05:08:43;;;;;;;;;20.33;19.00;;;;;11.07;51.01;100248.50;7558597;23;97748;-64
2021/10/24 05:11:48;;;;;;;;;21.40;18.00;;;;;11.08;50.93;100250.19;7546373;23;96699;-65
2021/10/24 05:14:53;;;;;;;;;18.80;17.80;;;;;11.03;50.98;100253.44;7557599;23;96538;-65
2021/10/24 05:17:56;;;;;;;;;20.60;17.00;;;;;10.92;51.00;100253.94;7585635;23;98068;-65
2021/10/24 05:20:59;;;;;;;;;20.00;18.00;;;;;10.98;51.13;100255.88;7559331;23;96565;-65
2021/10/24 05:24:04;;;;;;;;;19.00;16.00;;;;;11.02;51.13;100270.66;7560692;23;97281;-64
2021/10/24 05:27:08;;;;;;;;;20.50;19.00;;;;;11.02;51.10;100265.28;7558369;23;97346;-65
2021/10/24 05:30:13;;;;;;;;;20.40;17.00;;;;;11.00;50.90;100271.88;7558814;23;97643;-65
2021/10/24 05:33:17;;;;;;;;;18.00;17.00;;;;;11.02;51.13;100280.63;7555176;23;96435;-64
2021/10/24 05:36:40;;;;;;;;;18.25;18.00;;;;;11.07;50.86;100292.53;7586106;23;96620;-65
2021/10/24 05:39:44;;;;;;;;;21.00;18.40;;;;;11.08;50.95;100285.25;7559799;23;96514;-65
2021/10/24 05:43:01;;;;;;;;;18.75;15.75;;;;;11.11;50.92;100296.50;7586027;23;96492;-64
2021/10/24 05:46:08;;;;;;;;;18.00;17.00;;;;;11.13;50.79;100299.88;7559746;23;96704;-64
2021/10/24 05:49:11;;;;;;;;;20.00;17.00;;;;;11.13;50.65;100296.31;7528043;23;97258;-64
2021/10/24 05:52:20;;;;;;;;;19.40;18.40;;;;;11.12;50.71;100302.75;7560110;23;97857;-64
2021/10/24 05:55:25;;;;;;;;;22.80;19.80;;;;;11.07;50.78;100297.91;7555875;23;98270;-64
2021/10/24 05:58:28;;;;;;;;;19.75;18.75;;;;;11.08;50.82;100317.66;7558560;23;97440;-65
2021/10/24 06:01:45;;;;;;;;;21.00;20.00;;;;;11.04;50.85;100303.72;7558834;23;97500;-64
2021/10/24 06:05:08;;;;;;;;;21.00;20.00;;;;;11.05;50.91;100308.06;7584542;23;96383;-65
2021/10/24 06:08:21;;;;;;;;;20.00;19.00;;;;;10.99;50.73;100298.06;7583638;23;97066;-65
2021/10/24 06:11:28;;;;;;;;;18.00;15.75;;;;;11.20;50.64;100318.81;7556887;23;97712;-64
2021/10/24 06:14:31;;;;;;;;;20.00;17.60;;;;;11.43;50.86;100316.81;7585755;23;96805;-64
2021/10/24 06:17:36;;;;;;;;;18.80;18.00;;;;;11.82;50.91;100319.06;7582761;23;96616;-65
2021/10/24 06:20:40;;;;;;;;;18.60;16.40;;;;;12.13;50.54;100324.06;7584468;23;97388;-65
2021/10/24 06:23:43;;;;;;;;;18.00;15.00;;;;;11.79;48.97;100324.84;7558197;23;97112;-64
2021/10/24 06:26:48;;;;;;;;;19.75;18.00;;;;;11.60;49.38;100325.47;7532259;22;97768;-64
2021/10/24 06:29:52;;;;;;;;;20.00;18.60;;;;;11.65;49.27;100331.97;7545871;23;97876;-65
2021/10/24 06:33:23;;;;;;;;;17.60;16.00;;;;;11.66;49.38;100330.94;7583482;23;97361;-64
2021/10/24 06:36:49;;;;;;;;;20.00;19.00;;;;;11.78;49.15;100339.38;7541143;23;97365;-65
2021/10/24 06:40:00;;;;;;;;;21.00;18.00;;;;;11.80;48.96;100342.72;7532438;23;97158;-64
2021/10/24 07:07:20;;;;;;;;;23.00;20.50;;;;;14.48;43.68;100352.09;7611628;22;99113;-65
2021/10/24 07:10:43;;;;;;;;;21.00;20.60;;;;;17.50;37.94;100342.66;7568040;22;99840;-64
2021/10/24 07:13:46;;;;;;;;;23.75;20.25;;;;;19.66;33.88;100334.28;7594233;22;96821;-63
2021/10/24 07:16:50;;;;;;;;;20.00;19.60;;;;;21.57;30.41;100343.69;7593832;22;96512;-62
2021/10/24 07:19:54;;;;;;;;;19.80;18.20;;;;;22.98;28.08;100345.94;7593702;22;97935;-62
2021/10/24 07:22:59;;;;;;;;;20.20;17.00;;;;;23.97;26.97;100345.69;7595090;22;98321;-62
2021/10/24 07:26:37;;;;;;;;;21.40;17.20;;;;;25.24;25.03;100347.19;7597458;22;96701;-65
2021/10/24 07:29:41;;;;;;;;;20.40;19.00;;;;;26.02;23.86;100350.03;7631351;22;96975;-63
2021/10/24 07:32:45;;;;;;;;;19.40;17.00;;;;;26.82;22.86;100350.44;7631850;22;97538;-66
2021/10/24 07:36:06;;;;;;;;;20.20;18.00;;;;;27.57;21.86;100350.66;7629760;22;97018;-67
2021/10/24 07:39:11;;;;;;;;;20.00;18.00;;;;;28.31;21.15;100363.66;7657257;22;96537;-65
2021/10/24 07:42:14;;;;;;;;;20.20;18.00;;;;;28.88;21.07;100360.72;7631288;22;98270;-62
2021/10/24 07:45:18;;;;;;;;;18.00;17.00;;;;;29.25;20.25;100347.47;7633350;22;97028;-63
2021/10/24 07:48:23;;;;;;;;;17.75;17.00;;;;;29.95;19.54;100355.41;7631510;22;98403;-63
2021/10/24 07:51:27;;;;;;;;;19.00;18.00;;;;;30.35;19.61;100361.88;7631275;22;97393;-65
2021/10/24 07:54:32;;;;;;;;;18.00;17.00;;;;;30.25;19.47;100355.78;7657447;22;97469;-63
2021/10/24 07:57:35;;;;;;;;;21.80;18.80;;;;;30.24;18.98;100366.09;7629832;22;97470;-63
2021/10/24 08:00:39;;;;;;;;;18.00;18.00;;;;;28.92;20.16;100370.91;7629822;22;97475;-63
2021/10/24 08:03:42;;;;;;;;;20.00;19.00;;;;;29.44;19.92;100361.25;7632026;22;99417;-62
2021/10/24 08:06:46;;;;;;;;;21.00;17.67;;;;;29.77;19.27;100356.31;7656639;22;97388;-63
2021/10/24 08:09:51;;;;;;;;;18.40;17.00;;;;;30.36;19.14;100357.97;7656406;22;97950;-62
2021/10/24 08:12:55;;;;;;;;;18.40;16.00;;;;;30.94;18.43;100366.16;7630382;22;97392;-63
2021/10/24 08:15:59;;;;;;;;;19.40;18.40;;;;;31.18;18.37;100367.78;7631387;22;100032;-62
2021/10/24 08:19:04;;;;;;;;;18.60;16.60;;;;;31.42;18.16;100372.94;7659693;22;96641;-62
2021/10/24 08:22:09;;;;;;;;;21.75;18.00;;;;;31.71;17.82;100371.22;7609236;22;99499;-62
2021/10/24 08:25:18;;;;;;;;;18.00;16.60;;;;;31.89;17.29;100380.41;7633516;22;97053;-62
2021/10/24 08:28:23;;;;;;;;;18.60;17.00;;;;;32.35;17.20;100381.72;7659223;22;96589;-62
2021/10/24 08:31:49;;;;;;;;;17.00;16.00;;;;;32.60;17.18;100378.03;7660476;22;97053;-63
2021/10/24 08:34:53;;;;;;;;;13.40;12.40;;;;;32.71;16.58;100379.38;7634241;22;97401;-63
2021/10/24 08:37:56;;;;;;;;;13.60;13.00;;;;;32.74;16.49;100373.13;7660217;22;96572;-63
2021/10/24 08:41:02;;;;;;;;;13.00;13.00;;;;;32.87;16.49;100385.25;7633809;22;97987;-63
2021/10/24 08:44:07;;;;;;;;;13.60;13.00;;;;;32.99;16.49;100382.53;7633627;22;96681;-63
2021/10/24 08:47:10;;;;;;;;;13.00;11.80;;;;;33.23;16.64;100379.22;7659554;22;98033;-65
2021/10/24 08:50:15;;;;;;;;;12.80;12.00;;;;;33.59;16.14;100381.44;7660708;22;97489;-65
2021/10/24 08:53:20;;;;;;;;;13.00;12.00;;;;;33.34;15.83;100384.06;7659725;22;96415;-65
2021/10/24 08:56:28;;;;;;;;;13.60;12.00;;;;;33.31;16.17;100387.53;7659787;22;97458;-64
2021/10/24 08:59:31;;;;;;;;;14.00;12.00;;;;;33.05;16.52;100390.41;7632823;22;97717;-63
2021/10/24 09:02:55;;;;;;;;;15.00;14.00;;;;;33.03;16.46;100400.31;7661024;22;96504;-64
2021/10/24 09:05:58;;;;;;;;;17.00;16.00;;;;;33.09;16.34;100396.16;7659569;22;96746;-65
2021/10/24 09:09:11;;;;;;;;;15.00;14.00;;;;;33.40;16.50;100387.47;7659089;22;97233;-65
2021/10/24 09:12:17;;;;;;;;;12.20;12.00;;;;;33.56;16.30;100401.72;7660321;22;96511;-63
2021/10/24 09:15:21;;;;;;;;;12.75;12.00;;;;;33.65;16.35;100408.06;7633216;22;97420;-62
2021/10/24 09:18:30;;;;;;;;;13.00;13.00;;;;;33.78;16.09;100404.22;7632902;22;97581;-63
2021/10/24 09:21:34;;;;;;;;;13.60;12.00;;;;;33.83;16.03;100409.59;7607954;22;98328;-66
2021/10/24 09:24:37;;;;;;;;;15.00;13.00;;;;;33.86;15.62;100401.38;7633115;22;99492;-63
2021/10/24 09:27:45;;;;;;;;;11.60;11.60;;;;;33.94;15.93;100402.44;7659786;22;96419;-63
2021/10/24 09:30:58;;;;;;;;;16.00;13.00;;;;;33.99;15.92;100407.84;7661489;22;97089;-63
2021/10/24 09:34:17;;;;;;;;;13.00;12.00;;;;;34.03;15.36;100406.00;7661970;22;96518;-65
2021/10/24 09:37:20;;;;;;;;;12.00;12.00;;;;;34.12;15.87;100405.91;7661165;22;97945;-65
2021/10/24 09:40:46;;;;;;;;;9.00;9.00;;;;;34.33;15.37;100396.38;7660340;22;96818;-65
2021/10/24 09:43:51;;;;;;;;;6.00;4.00;;;;;34.55;14.30;100399.97;7660425;22;97337;-64
2021/10/24 09:46:55;;;;;;;;;7.00;6.40;;;;;34.20;14.76;100400.31;7660035;22;96575;-65
2021/10/24 09:49:59;;;;;;;;;8.00;7.00;;;;;34.15;14.95;100403.28;7633422;22;96489;-64
2021/10/24 09:53:15;;;;;;;;;10.00;8.00;;;;;33.97;15.04;100400.94;7660080;22;96464;-63
2021/10/24 09:56:20;;;;;;;;;8.00;6.75;;;;;34.16;15.14;100406.91;7660213;22;97003;-64
2021/10/24 09:59:25;;;;;;;;;7.00;6.00;;;;;34.23;15.25;100395.97;7633619;22;96750;-65
2021/10/24 10:02:29;;;;;;;;;8.00;6.50;;;;;34.18;14.98;100402.63;7607586;22;96629;-65
2021/10/24 10:05:34;;;;;;;;;6.60;6.00;;;;;34.18;14.74;100408.22;7608762;22;97799;-64
2021/10/24 10:08:42;;;;;;;;;8.00;7.00;;;;;33.90;14.54;100396.72;7660455;22;97292;-65
2021/10/24 10:11:53;;;;;;;;;7.33;6.33;;;;;33.88;14.67;100384.22;7659846;22;97089;-64
2021/10/24 10:15:00;;;;;;;;;8.00;6.00;;;;;33.62;14.66;100384.41;7659856;22;97395;-65
2021/10/24 10:18:04;;;;;;;;;7.00;6.80;;;;;33.89;15.00;100397.06;7609368;22;99725;-64
2021/10/24 10:21:07;;;;;;;;;7.00;5.40;;;;;33.91;14.63;100392.78;7660770;22;97408;-65
2021/10/24 10:24:45;;;;;;;;;5.00;5.00;;;;;33.76;14.84;100395.34;7660400;22;97371;-65
2021/10/24 10:27:48;;;;;;;;;5.00;5.00;;;;;33.79;14.92;100397.47;7660255;22;96676;-65
2021/10/24 10:31:09;;;;;;;;;8.40;7.00;;;;;33.65;14.55;100397.69;7633549;22;96543;-62
2021/10/24 10:34:12;;;;;;;;;7.00;6.40;;;;;33.03;15.31;100395.53;7659722;22;97542;-64
2021/10/24 10:37:55;;;;;;;;;6.00;5.00;;;;;31.92;15.74;100376.13;7633824;22;96727;-69
2021/10/24 10:41:00;;;;;;;;;7.00;6.00;;;;;32.01;16.53;100379.75;7633240;22;97680;-68
2021/10/24 10:44:07;;;;;;;;;6.20;6.20;;;;;32.24;16.25;100379.28;7607022;22;100030;-68
2021/10/24 10:47:42;;;;;;;;;6.00;5.00;;;;;32.44;15.84;100374.97;7632938;22;98514;-63
2021/10/24 10:50:48;;;;;;;;;9.00;8.00;;;;;32.80;16.08;100376.53;7645096;22;97386;-68
2021/10/24 10:53:59;;;;;;;;;7.00;7.00;;;;;33.12;15.57;100380.69;7660169;22;98340;-68
2021/10/24 10:57:04;;;;;;;;;7.50;6.50;;;;;33.22;15.35;100377.56;7659423;22;96941;-66
2021/10/24 11:00:32;;;;;;;;;6.00;6.00;;;;;32.91;15.46;100380.63;7658624;22;97078;-68
2021/10/24 11:03:43;;;;;;;;;7.60;7.00;;;;;31.64;16.50;100376.44;7660362;22;97080;-68
2021/10/24 11:06:54;;;;;;;;;6.00;6.00;;;;;31.18;16.96;100368.56;7660009;22;97488;-66
2021/10/24 11:10:00;;;;;;;;;5.20;5.20;;;;;30.78;17.04;100367.75;7632763;22;98046;-68
2021/10/24 11:13:37;;;;;;;;;6.60;5.20;;;;;29.52;18.40;100365.22;7659132;22;97220;-67
2021/10/24 11:16:43;;;;;;;;;6.00;5.00;;;;;28.57;18.90;100358.50;7633887;22;96625;-68
2021/10/24 11:19:50;;;;;;;;;4.50;4.50;;;;;28.15;19.33;100353.16;7633066;22;97628;-68
2021/10/24 11:23:00;;;;;;;;;8.00;7.00;;;;;27.84;19.59;100350.81;7661561;22;97343;-66
2021/10/24 11:26:21;;;;;;;;;6.00;4.00;;;;;27.08;19.89;100354.56;7660628;22;96654;-66
2021/10/24 11:29:26;;;;;;;;;5.25;4.75;;;;;26.25;20.60;100349.31;7633168;22;98416;-67
2021/10/24 11:32:33;;;;;;;;;5.40;4.00;;;;;25.76;21.42;100348.56;7660619;22;97441;-67
2021/10/24 11:35:40;;;;;;;;;6.00;6.00;;;;;25.03;22.06;100329.88;7660767;22;97089;-67
2021/10/24 11:38:43;;;;;;;;;4.80;4.00;;;;;24.69;22.70;100347.31;7633514;22;97364;-68
2021/10/24 11:41:46;;;;;;;;;5.00;5.00;;;;;24.20;22.89;100338.84;7633142;22;98641;-67
2021/10/24 11:44:51;;;;;;;;;5.00;4.00;;;;;23.76;23.49;100336.56;7607997;22;99364;-68
2021/10/24 11:47:59;;;;;;;;;4.80;4.80;;;;;23.28;24.39;100335.88;7635029;22;96951;-65
2021/10/24 11:51:03;;;;;;;;;6.80;4.20;;;;;22.75;24.89;100319.69;7665625;22;97714;-66
2021/10/24 11:54:10;;;;;;;;;5.00;5.00;;;;;22.67;24.65;100323.75;7663774;22;96594;-68
2021/10/24 12:00:49;;;;;;;;;4.00;4.00;;;;;22.66;23.76;100318.53;7662700;22;96986;-67
2021/10/24 12:03:55;;;;;;;;;4.00;4.00;;;;;22.71;23.08;100313.91;7635518;22;98155;-65
2021/10/24 12:07:00;;;;;;;;;3.00;3.00;;;;;22.83;22.65;100313.69;7660424;22;97458;-66
2021/10/24 12:10:04;;;;;;;;;5.60;3.60;;;;;22.53;22.43;100306.06;7659847;22;97062;-65
2021/10/24 12:13:30;;;;;;;;;4.00;3.50;;;;;22.22;22.85;100306.97;7658830;22;96922;-67
2021/10/24 12:16:40;;;;;;;;;3.00;3.00;;;;;22.24;22.77;100299.28;7658583;22;97151;-67
2021/10/24 12:19:44;;;;;;;;;3.00;3.00;;;;;22.09;23.25;100310.97;7657813;22;96644;-68
2021/10/24 12:22:50;;;;;;;;;3.75;3.50;;;;;21.89;23.24;100302.56;7609539;22;98438;-68
2021/10/24 12:25:55;;;;;;;;;3.00;2.50;;;;;21.56;24.25;100301.69;7633007;22;96718;-68
2021/10/24 12:29:12;;;;;;;;;3.00;3.00;;;;;21.67;23.99;100269.69;7634410;22;97237;-68
2021/10/24 12:32:17;;;;;;;;;4.00;3.00;;;;;21.67;23.75;100293.56;7635850;22;97800;-68
2021/10/24 12:35:21;;;;;;;;;5.00;5.00;;;;;21.51;23.81;100285.19;7635421;22;96455;-67
2021/10/24 12:38:24;;;;;;;;;4.00;4.00;;;;;21.67;24.28;100288.91;7658296;22;96521;-66
2021/10/24 12:41:34;;;;;;;;;4.50;4.00;;;;;22.05;23.73;100293.38;7634257;22;96843;-65
2021/10/24 12:44:37;;;;;;;;;5.40;5.00;;;;;22.45;22.59;100281.84;7661038;22;96829;-67
2021/10/24 12:47:53;;;;;;;;;4.00;3.00;;;;;22.90;22.81;100286.78;7634416;22;99535;-65
2021/10/24 12:50:57;;;;;;;;;5.00;4.00;;;;;23.23;21.61;100286.34;7633969;22;97517;-67
2021/10/24 12:54:02;;;;;;;;;4.00;3.60;;;;;23.49;21.85;100283.69;7631537;22;97836;-65
2021/10/24 12:57:08;;;;;;;;;4.00;4.00;;;;;23.30;22.05;100286.94;7658827;22;96779;-63
2021/10/24 13:00:12;;;;;;;;;4.00;4.00;;;;;23.13;22.67;100294.56;7632335;22;97450;-65
2021/10/24 13:03:17;;;;;;;;;4.80;4.00;;;;;22.89;22.74;100285.94;7658934;22;97391;-65
2021/10/24 13:06:20;;;;;;;;;4.25;3.25;;;;;22.06;23.36;100198.06;7632925;22;97445;-65
2021/10/24 13:09:25;;;;;;;;;4.00;4.00;;;;;22.19;24.04;100280.84;7657124;22;97069;-66
2021/10/24 13:12:28;;;;;;;;;4.00;4.00;;;;;22.10;24.67;100274.19;7660260;22;97188;-65
2021/10/24 13:15:32;;;;;;;;;4.60;4.00;;;;;22.36;24.07;100276.03;7659541;22;97418;-66
2021/10/24 13:18:37;;;;;;;;;6.00;4.00;;;;;22.59;23.68;100283.00;7658936;22;97419;-65
2021/10/24 13:25:01;;;;;;;;;4.20;3.20;;;;;22.79;24.08;100268.56;7658445;22;97577;-67
2021/10/24 13:28:05;;;;;;;;;5.40;5.00;;;;;22.86;23.48;100266.41;7659160;22;97168;-65
2021/10/24 13:31:08;;;;;;;;;4.20;3.20;;;;;22.85;23.11;100267.50;7660681;22;96625;-65
2021/10/24 13:34:13;;;;;;;;;4.00;4.00;;;;;22.85;23.40;100259.25;7632191;22;97786;-67
2021/10/24 13:37:17;;;;;;;;;5.75;4.75;;;;;22.91;23.11;100263.69;7660419;22;97527;-66
2021/10/24 13:40:23;;;;;;;;;5.00;4.00;;;;;23.07;22.99;100262.63;7662518;22;96725;-67
2021/10/24 13:43:26;;;;;;;;;6.00;5.00;;;;;23.08;22.79;100267.03;7661257;22;97388;-66
2021/10/24 13:46:30;;;;;;;;;6.00;5.00;;;;;23.14;23.00;100260.44;7609538;22;97780;-68
2021/10/24 13:49:35;;;;;;;;;4.00;4.00;;;;;23.20;22.75;100259.38;7633841;22;96494;-65
2021/10/24 13:52:38;;;;;;;;;4.20;3.60;;;;;23.19;22.31;100257.72;7634158;22;99958;-65
2021/10/24 13:55:42;;;;;;;;;4.00;4.00;;;;;23.13;22.49;100257.97;7631830;22;99399;-68
2021/10/24 13:58:45;;;;;;;;;4.00;4.00;;;;;23.07;22.91;100253.53;7633917;22;100452;-65
2021/10/24 14:01:48;;;;;;;;;3.60;3.60;;;;;23.17;22.43;100254.41;7660156;22;97155;-66
2021/10/24 14:04:54;;;;;;;;;3.40;2.00;;;;;23.16;22.91;100251.94;7659542;22;96566;-64
2021/10/24 14:08:00;;;;;;;;;4.60;4.00;;;;;23.08;22.49;100235.94;7660327;22;97422;-65
2021/10/24 14:11:03;;;;;;;;;4.60;4.00;;;;;22.98;23.12;100250.50;7658709;22;96440;-66
2021/10/24 14:14:06;;;;;;;;;5.00;4.00;;;;;22.79;23.24;100247.41;7660134;22;97350;-66
2021/10/24 14:17:12;;;;;;;;;4.60;4.00;;;;;22.66;23.53;100241.53;7660418;22;97161;-64
2021/10/24 14:20:18;;;;;;;;;5.00;4.00;;;;;22.42;23.29;100255.72;7634446;22;97842;-64
2021/10/24 14:23:21;;;;;;;;;4.00;4.00;;;;;22.21;23.36;100240.19;7630871;22;97767;-65
2021/10/24 14:26:24;;;;;;;;;6.80;6.20;;;;;22.01;24.01;100245.56;7658753;22;96653;-67
2021/10/24 14:29:37;;;;;;;;;4.50;4.00;;;;;21.85;24.53;100241.81;7659376;22;96935;-67
2021/10/24 14:32:41;;;;;;;;;4.00;4.00;;;;;21.77;24.28;100247.81;7660962;22;97548;-66
2021/10/24 14:35:45;;;;;;;;;5.00;4.60;;;;;21.70;24.34;100249.13;7633405;22;98392;-65
2021/10/24 14:38:48;;;;;;;;;6.20;5.00;;;;;21.58;24.47;100250.13;7661206;22;97092;-66
2021/10/24 14:41:52;;;;;;;;;6.40;6.00;;;;;21.67;24.96;100231.25;7660732;22;97397;-66
2021/10/24 14:44:56;;;;;;;;;4.00;3.00;;;;;21.51;25.13;100227.53;7661296;22;96532;-65
2021/10/24 14:47:59;;;;;;;;;4.00;4.00;;;;;21.34;25.12;100226.84;7661352;22;96976;-65